Time;durP1;ratioP1;P1;durP2;ratioP2;P2;SDS_P1;SDS_P2;PMS_P1;PMS_P2;Temp;Humidity;BMP_temperature;BMP_pressure;BME280_temperature;BME280_humidity;BME280_pressure;Samples;Min_cycle;Max_cycle;Signal;HPM_P1;HPM_P2
2023/04/21 00:00:28;;;;;;;17.43;15.63;;;;;;;7.39;nan;96604.06;4952697;28;20241;-65
2023/04/21 00:02:56;;;;;;;17.03;15.33;;;;;;;7.46;nan;96598.88;4959178;28;20248;-64
2023/04/21 00:05:24;;;;;;;17.13;15.40;;;;;;;7.41;nan;96596.81;4953913;28;21227;-64
2023/04/21 00:07:52;;;;;;;18.27;16.63;;;;;;;7.40;nan;96595.16;4917974;28;20244;-66
2023/04/21 00:10:20;;;;;;;16.93;15.23;;;;;;;7.37;nan;96601.59;4944381;28;20547;-65
2023/04/21 00:12:49;;;;;;;18.33;16.63;;;;;;;7.31;nan;96594.41;4960937;28;20682;-66
2023/04/21 00:15:16;;;;;;;18.10;16.13;;;;;;;7.32;nan;96603.13;4936167;28;20213;-65
2023/04/21 00:17:44;;;;;;;17.87;16.23;;;;;;;7.24;nan;96590.84;4957369;28;20206;-65
2023/04/21 00:20:13;;;;;;;17.53;15.83;;;;;;;7.19;nan;96587.91;4957526;28;20724;-66
2023/04/21 00:22:40;;;;;;;17.63;15.90;;;;;;;7.19;nan;96596.63;4915303;28;21953;-63
2023/04/21 00:25:09;;;;;;;17.27;15.47;;;;;;;7.26;nan;96595.94;4954186;28;20205;-66
2023/04/21 00:27:36;;;;;;;18.00;16.10;;;;;;;7.23;nan;96589.22;4943823;28;20529;-66
2023/04/21 00:30:07;;;;;;;17.03;15.33;;;;;;;7.25;nan;96595.13;4938615;28;20237;-66
2023/04/21 00:32:34;;;;;;;18.33;16.53;;;;;;;7.17;nan;96588.09;4954111;28;20372;-65
2023/04/21 00:35:02;;;;;;;17.60;15.10;;;;;;;7.07;nan;96582.25;4960498;28;20580;-65
2023/04/21 00:37:30;;;;;;;17.67;15.53;;;;;;;7.03;nan;96584.41;4951070;28;20554;-64
2023/04/21 00:39:58;;;;;;;16.80;15.17;;;;;;;6.99;nan;96588.41;4919486;28;20776;-65
2023/04/21 00:42:26;;;;;;;17.87;16.13;;;;;;;6.95;nan;96589.75;4936052;28;20229;-66
2023/04/21 00:44:54;;;;;;;16.90;15.20;;;;;;;6.91;nan;96597.16;4961009;28;20272;-67
2023/04/21 00:47:23;;;;;;;19.23;16.03;;;;;;;6.97;nan;96589.56;4931533;28;20283;-64
2023/04/21 00:49:51;;;;;;;18.20;16.40;;;;;;;6.95;nan;96592.38;4958227;28;20926;-66
2023/04/21 00:52:18;;;;;;;17.47;15.87;;;;;;;6.89;nan;96587.81;4947953;28;21034;-65
2023/04/21 00:54:46;;;;;;;18.53;16.43;;;;;;;6.89;nan;96578.09;4918129;28;20726;-64
2023/04/21 00:57:14;;;;;;;17.90;16.10;;;;;;;6.92;nan;96588.25;4939202;28;20218;-65
2023/04/21 00:59:42;;;;;;;18.67;16.83;;;;;;;6.88;nan;96588.81;4959217;28;21142;-64
2023/04/21 01:02:09;;;;;;;17.80;16.00;;;;;;;6.85;nan;96582.06;4935779;28;20761;-65
2023/04/21 01:04:39;;;;;;;17.83;15.93;;;;;;;6.86;nan;96580.25;4952853;28;20809;-64
2023/04/21 01:07:08;;;;;;;18.83;16.90;;;;;;;6.89;nan;96587.81;4951944;28;20272;-65
2023/04/21 01:09:36;;;;;;;17.67;15.67;;;;;;;6.88;nan;96586.97;4915344;28;21094;-65
2023/04/21 01:12:05;;;;;;;21.50;17.40;;;;;;;6.91;nan;96589.25;4941330;28;20721;-64
2023/04/21 01:14:34;;;;;;;20.67;18.53;;;;;;;7.04;nan;96590.50;4954834;28;20354;-64
2023/04/21 01:17:04;;;;;;;19.17;17.30;;;;;;;6.95;nan;96592.38;4939028;28;20745;-65
2023/04/21 01:19:34;;;;;;;18.57;16.57;;;;;;;6.91;nan;96594.53;4954502;28;20640;-65
2023/04/21 01:22:03;;;;;;;19.17;17.27;;;;;;;6.84;nan;96590.16;4956798;28;20304;-64
2023/04/21 01:24:38;;;;;;;18.20;16.40;;;;;;;6.86;nan;96596.06;4952366;28;20428;-65
2023/04/21 01:27:09;;;;;;;18.63;16.73;;;;;;;6.79;nan;96593.31;4915594;28;20217;-65
2023/04/21 01:29:36;;;;;;;19.60;17.57;;;;;;;6.77;nan;96603.19;4946176;28;20877;-65
2023/04/21 01:32:06;;;;;;;19.50;17.47;;;;;;;6.69;nan;96598.78;4958323;28;20210;-65
2023/04/21 01:34:34;;;;;;;18.10;16.30;;;;;;;6.64;nan;96601.13;4940348;28;20742;-64
2023/04/21 01:37:03;;;;;;;19.33;16.17;;;;;;;6.55;nan;96607.44;4953865;28;20206;-65
2023/04/21 01:39:31;;;;;;;17.53;15.87;;;;;;;6.47;nan;96617.00;4951971;28;20328;-65
2023/04/21 01:41:59;;;;;;;18.03;16.23;;;;;;;6.47;nan;96610.91;4918973;28;20931;-67
2023/04/21 01:44:27;;;;;;;17.53;15.70;;;;;;;6.41;nan;96619.50;4932587;28;20209;-67
2023/04/21 01:46:55;;;;;;;17.00;15.30;;;;;;;6.36;nan;96615.56;4956021;28;20214;-66
2023/04/21 01:49:22;;;;;;;16.40;14.80;;;;;;;6.29;nan;96612.00;4934374;28;20275;-66
2023/04/21 01:51:50;;;;;;;16.53;14.93;;;;;;;6.22;nan;96614.47;4953216;28;20724;-66
2023/04/21 01:54:19;;;;;;;17.17;15.23;;;;;;;6.19;nan;96613.97;4949975;28;20201;-66
2023/04/21 01:56:47;;;;;;;15.80;14.20;;;;;;;6.17;nan;96610.69;4917375;28;20218;-65
2023/04/21 01:59:14;;;;;;;16.43;14.73;;;;;;;6.05;nan;96595.31;4937951;28;20241;-65
2023/04/21 02:01:42;;;;;;;15.53;13.97;;;;;;;6.04;nan;96609.44;4953095;28;20950;-66
2023/04/21 02:04:10;;;;;;;18.27;16.37;;;;;;;6.00;nan;96604.66;4939744;28;20604;-66
2023/04/21 02:06:37;;;;;;;17.67;15.97;;;;;;;6.01;nan;96608.94;4952318;28;20299;-68
2023/04/21 02:09:05;;;;;;;16.87;15.17;;;;;;;6.00;nan;96608.13;4952680;28;20287;-66
2023/04/21 02:11:34;;;;;;;17.73;16.13;;;;;;;6.02;nan;96611.41;4954325;28;20232;-65
2023/04/21 02:14:02;;;;;;;17.33;15.63;;;;;;;6.07;nan;96610.94;4902813;28;20779;-64
2023/04/21 02:16:29;;;;;;;16.93;15.23;;;;;;;6.08;nan;96613.38;4952078;28;20209;-66
2023/04/21 02:18:58;;;;;;;18.17;15.97;;;;;;;6.07;nan;96616.19;4938259;28;20803;-67
2023/04/21 02:21:27;;;;;;;17.80;16.00;;;;;;;6.00;nan;96618.63;4946313;28;20287;-66
2023/04/21 02:23:55;;;;;;;19.97;17.87;;;;;;;5.89;nan;96613.75;4947715;28;20414;-66
2023/04/21 02:26:22;;;;;;;16.43;14.73;;;;;;;5.79;nan;96617.34;4955651;28;20264;-65
2023/04/21 02:28:51;;;;;;;17.33;15.63;;;;;;;5.75;nan;96623.94;4897148;28;20218;-65
2023/04/21 02:31:19;;;;;;;17.50;15.80;;;;;;;5.70;nan;96630.69;4954028;28;20555;-64
2023/04/21 02:33:47;;;;;;;17.37;15.63;;;;;;;5.63;nan;96633.16;4951163;28;20685;-65
2023/04/21 02:36:14;;;;;;;18.13;16.37;;;;;;;5.60;nan;96636.94;4937711;28;20205;-66
2023/04/21 02:38:42;;;;;;;17.10;15.30;;;;;;;5.50;nan;96626.63;4951093;28;20764;-65
2023/04/21 02:41:10;;;;;;;17.63;15.93;;;;;;;5.44;nan;96616.75;4955972;28;20226;-66
2023/04/21 02:43:37;;;;;;;17.40;15.70;;;;;;;5.50;nan;96626.63;4905295;28;20217;-66
2023/04/21 02:46:08;;;;;;;19.40;17.50;;;;;;;5.60;nan;96625.63;4946549;28;20421;-65
2023/04/21 02:48:36;;;;;;;18.47;16.53;;;;;;;5.69;nan;96627.25;4953889;28;20210;-67
2023/04/21 02:51:04;;;;;;;20.67;18.57;;;;;;;5.79;nan;96624.44;4932542;28;20460;-66
2023/04/21 02:53:31;;;;;;;19.20;17.40;;;;;;;5.78;nan;96628.84;4951269;28;20209;-66
2023/04/21 02:56:01;;;;;;;20.50;18.40;;;;;;;5.82;nan;96623.25;4956610;28;20377;-67
2023/04/21 02:58:29;;;;;;;20.33;18.33;;;;;;;5.96;nan;96627.84;4908766;28;20338;-65
2023/04/21 03:00:57;;;;;;;20.23;18.03;;;;;;;6.07;nan;96624.88;4936877;28;20441;-66
2023/04/21 03:03:26;;;;;;;19.77;17.70;;;;;;;6.10;nan;96633.41;4953570;28;20210;-64
2023/04/21 03:05:56;;;;;;;21.10;18.83;;;;;;;6.11;nan;96621.91;4933489;28;21496;-66
2023/04/21 03:08:24;;;;;;;20.17;18.00;;;;;;;6.16;nan;96622.22;4950588;28;20475;-66
2023/04/21 03:10:52;;;;;;;20.80;18.57;;;;;;;6.11;nan;96612.22;4951296;28;20398;-67
2023/04/21 03:13:20;;;;;;;21.20;18.07;;;;;;;6.12;nan;96621.75;4934297;28;20572;-65
2023/04/21 03:15:48;;;;;;;20.90;18.57;;;;;;;6.12;nan;96615.66;4891776;28;20222;-66
2023/04/21 03:18:15;;;;;;;20.17;18.17;;;;;;;6.08;nan;96616.00;4953445;28;20209;-65
2023/04/21 03:20:44;;;;;;;22.37;18.87;;;;;;;6.05;nan;96621.59;4954053;28;20577;-64
2023/04/21 03:23:12;;;;;;;20.93;18.57;;;;;;;6.00;nan;96621.25;4931360;28;20726;-63
2023/04/21 03:25:40;;;;;;;22.57;18.77;;;;;;;5.97;nan;96620.75;4951329;28;20214;-64
2023/04/21 03:28:07;;;;;;;20.70;18.43;;;;;;;5.93;nan;96631.63;4953572;28;20287;-62
2023/04/21 03:30:35;;;;;;;21.67;18.97;;;;;;;5.94;nan;96629.81;4907047;28;20692;-64
2023/04/21 03:33:03;;;;;;;20.87;18.77;;;;;;;5.90;nan;96631.97;4931095;28;20658;-65
2023/04/21 03:35:33;;;;;;;19.43;17.67;;;;;;;5.83;nan;96627.53;4955446;28;20214;-65
2023/04/21 03:38:02;;;;;;;21.77;19.57;;;;;;;5.81;nan;96630.34;4928356;28;20483;-65
2023/04/21 03:40:30;;;;;;;20.90;18.63;;;;;;;5.83;nan;96631.00;4948011;28;20242;-63
2023/04/21 03:42:58;;;;;;;22.00;19.80;;;;;;;5.91;nan;96633.59;4952962;28;20210;-65
2023/04/21 03:45:26;;;;;;;24.97;19.60;;;;;;;5.87;nan;96641.97;4909229;28;20492;-66
2023/04/21 03:47:54;;;;;;;20.93;18.43;;;;;;;5.86;nan;96635.91;4931837;28;20269;-64
2023/04/21 03:50:22;;;;;;;21.63;18.93;;;;;;;5.81;nan;96632.97;4955344;28;20268;-65
2023/04/21 03:52:50;;;;;;;21.10;18.87;;;;;;;5.75;nan;96634.44;4929124;28;20749;-65
2023/04/21 03:55:19;;;;;;;19.53;17.47;;;;;;;5.73;nan;96638.25;4931309;28;20213;-65
2023/04/21 03:57:46;;;;;;;21.00;18.80;;;;;;;5.70;nan;96642.03;4954557;28;20438;-64
2023/04/21 04:00:14;;;;;;;20.37;18.27;;;;;;;5.69;nan;96643.00;4937581;28;20304;-66
2023/04/21 04:02:42;;;;;;;21.43;19.13;;;;;;;5.63;nan;96638.41;4915156;28;20669;-66
2023/04/21 04:05:10;;;;;;;20.57;18.57;;;;;;;5.59;nan;96637.91;4954307;28;20207;-65
2023/04/21 04:07:38;;;;;;;23.03;19.93;;;;;;;5.55;nan;96643.69;4929748;28;20788;-65
2023/04/21 04:10:06;;;;;;;22.83;20.47;;;;;;;5.57;nan;96644.34;4958298;28;20232;-66
2023/04/21 04:12:35;;;;;;;20.47;18.30;;;;;;;5.68;nan;96648.41;4951239;28;20210;-65
2023/04/21 04:15:02;;;;;;;20.03;17.93;;;;;;;5.70;nan;96642.03;4954433;28;20245;-68
2023/04/21 04:17:30;;;;;;;21.53;19.17;;;;;;;5.76;nan;96641.34;4900275;28;20304;-64
2023/04/21 04:19:58;;;;;;;22.13;19.80;;;;;;;5.76;nan;96641.34;4938696;28;20442;-64
2023/04/21 04:22:25;;;;;;;21.23;19.03;;;;;;;5.73;nan;96638.25;4949434;28;20633;-65
2023/04/21 04:24:54;;;;;;;21.80;19.50;;;;;;;5.80;nan;96641.84;4936653;28;20221;-67
2023/04/21 04:27:21;;;;;;;22.43;20.03;;;;;;;5.81;nan;96648.75;4955515;28;20224;-66
2023/04/21 04:29:50;;;;;;;21.93;18.40;;;;;;;5.82;nan;96644.28;4955859;28;20233;-65
2023/04/21 04:32:18;;;;;;;24.67;20.23;;;;;;;5.83;nan;96651.19;4905345;28;20218;-65
2023/04/21 04:34:46;;;;;;;22.17;19.43;;;;;;;5.82;nan;96642.50;4935913;28;20276;-65
2023/04/21 04:37:13;;;;;;;23.93;19.70;;;;;;;5.82;nan;96644.28;4951676;28;21132;-69
2023/04/21 04:39:41;;;;;;;22.67;19.77;;;;;;;5.83;nan;96644.13;4935212;28;20230;-66
2023/04/21 04:42:09;;;;;;;23.40;20.80;;;;;;;5.82;nan;96649.56;4960267;28;20287;-67
2023/04/21 04:44:36;;;;;;;22.67;20.27;;;;;;;5.85;nan;96646.59;4957234;28;20625;-67
2023/04/21 04:47:06;;;;;;;22.90;20.60;;;;;;;5.88;nan;96648.91;4907667;28;20233;-65
2023/04/21 04:49:33;;;;;;;22.70;19.70;;;;;;;5.89;nan;96648.72;4935479;28;20456;-67
2023/04/21 04:52:01;;;;;;;23.17;20.70;;;;;;;5.98;nan;96648.69;4956805;28;20267;-67
2023/04/21 04:54:29;;;;;;;24.00;20.97;;;;;;;6.01;nan;96641.34;4936935;28;20312;-66
2023/04/21 04:56:57;;;;;;;22.17;19.63;;;;;;;6.00;nan;96641.47;4957975;28;20237;-66
2023/04/21 04:59:25;;;;;;;21.93;19.67;;;;;;;6.00;nan;96649.34;4955118;28;20240;-66
2023/04/21 05:01:53;;;;;;;20.97;18.73;;;;;;;6.02;nan;96656.13;4960015;28;20346;-64
2023/04/21 05:04:23;;;;;;;22.03;18.90;;;;;;;6.01;nan;96656.28;4895772;28;20752;-65
2023/04/21 05:06:51;;;;;;;22.83;19.43;;;;;;;5.99;nan;96656.44;4956504;28;20609;-65
2023/04/21 05:09:18;;;;;;;21.30;18.83;;;;;;;5.99;nan;96655.59;4955668;28;20784;-66
2023/04/21 05:11:46;;;;;;;23.57;21.23;;;;;;;5.99;nan;96660.88;4935557;28;20276;-65
2023/04/21 05:14:14;;;;;;;21.83;19.53;;;;;;;5.98;nan;96660.06;4931081;28;20991;-65
2023/04/21 05:16:43;;;;;;;21.80;19.50;;;;;;;5.97;nan;96660.22;4934197;28;20731;-66
2023/04/21 05:19:11;;;;;;;23.67;21.17;;;;;;;5.94;nan;96664.00;4895388;28;20241;-66
2023/04/21 05:21:39;;;;;;;22.40;19.93;;;;;;;5.92;nan;96666.78;4937423;28;20645;-66
2023/04/21 05:24:07;;;;;;;20.43;18.37;;;;;;;5.86;nan;96661.38;4957669;28;20674;-65
2023/04/21 05:26:35;;;;;;;18.80;16.87;;;;;;;5.82;nan;96663.53;4937419;28;20214;-66
2023/04/21 05:29:03;;;;;;;21.73;18.73;;;;;;;5.79;nan;96664.66;4958492;28;20699;-66
2023/04/21 05:31:31;;;;;;;22.10;18.70;;;;;;;5.79;nan;96655.97;4939893;28;20709;-66
2023/04/21 05:33:59;;;;;;;22.47;20.17;;;;;;;5.76;nan;96651.06;4908376;28;21310;-65
2023/04/21 05:36:29;;;;;;;23.40;21.03;;;;;;;5.72;nan;96655.81;4939623;28;20213;-65
2023/04/21 05:38:58;;;;;;;20.60;18.43;;;;;;;5.70;nan;96662.25;4951173;28;20363;-65
2023/04/21 05:41:25;;;;;;;22.70;20.27;;;;;;;5.62;nan;96655.97;4937356;28;20600;-66
2023/04/21 05:43:53;;;;;;;22.60;19.23;;;;;;;5.63;nan;96662.06;4954484;28;21739;-67
2023/04/21 05:46:21;;;;;;;20.80;18.57;;;;;;;5.64;nan;96658.47;4953784;28;20202;-66
2023/04/21 05:48:48;;;;;;;22.17;18.73;;;;;;;5.62;nan;96658.63;4934621;28;20662;-67
2023/04/21 05:51:16;;;;;;;24.60;20.57;;;;;;;5.67;nan;96665.19;4892476;28;20288;-64
2023/04/21 05:53:44;;;;;;;21.27;19.07;;;;;;;5.77;nan;96665.84;4953655;28;20209;-66
2023/04/21 05:56:13;;;;;;;21.33;19.13;;;;;;;5.96;nan;96663.81;4959654;28;20260;-65
2023/04/21 05:58:41;;;;;;;21.53;19.27;;;;;;;6.13;nan;96660.22;4935383;28;20510;-65
2023/04/21 06:01:09;;;;;;;22.60;19.80;;;;;;;6.35;nan;96649.94;4957440;28;20700;-64
2023/04/21 06:03:36;;;;;;;25.63;21.70;;;;;;;6.55;nan;96652.97;4937796;28;20808;-65
2023/04/21 06:06:06;;;;;;;22.17;19.77;;;;;;;6.65;nan;96639.63;4911991;28;20214;-65
2023/04/21 06:08:33;;;;;;;20.60;18.50;;;;;;;6.82;nan;96640.34;4932373;28;20741;-64
2023/04/21 06:11:01;;;;;;;19.90;17.80;;;;;;;6.95;nan;96635.31;4960217;28;20209;-66
2023/04/21 06:13:30;;;;;;;20.60;18.50;;;;;;;7.14;nan;96641.13;4936855;28;20385;-67
2023/04/21 06:15:58;;;;;;;18.77;16.93;;;;;;;7.36;nan;96628.94;4955648;28;20308;-66
2023/04/21 06:18:27;;;;;;;20.37;18.27;;;;;;;7.53;nan;96637.53;4937923;28;20205;-67
2023/04/21 06:20:54;;;;;;;22.10;17.43;;;;;;;7.60;nan;96647.38;4910955;28;20732;-64
2023/04/21 06:23:22;;;;;;;19.43;17.43;;;;;;;7.75;nan;96642.13;4936058;28;20237;-65
2023/04/21 06:26:00;;;;;;;19.93;18.00;;;;;;;7.97;nan;96637.78;4956546;28;20641;-65
2023/04/21 06:28:27;;;;;;;18.87;16.97;;;;;;;8.11;nan;96630.88;4936367;28;20524;-64
2023/04/21 06:30:56;;;;;;;17.87;16.17;;;;;;;8.38;nan;96633.88;4958770;28;20268;-65
2023/04/21 06:33:24;;;;;;;17.13;15.40;;;;;;;8.34;nan;96629.97;4932418;28;20910;-64
2023/04/21 06:35:52;;;;;;;18.07;16.03;;;;;;;8.21;nan;96626.16;4956099;28;20209;-65
2023/04/21 06:38:20;;;;;;;16.70;15.10;;;;;;;8.21;nan;96620.88;4888695;28;20940;-65
2023/04/21 06:40:47;;;;;;;18.90;15.80;;;;;;;8.18;nan;96623.88;4955834;28;20271;-66
2023/04/21 06:43:15;;;;;;;17.07;15.27;;;;;;;8.11;nan;96622.97;4945186;28;20315;-65
2023/04/21 06:45:43;;;;;;;17.13;15.43;;;;;;;7.96;nan;96636.16;4947645;28;20218;-64
2023/04/21 06:48:12;;;;;;;17.33;15.60;;;;;;;7.99;nan;96632.34;4954071;28;20206;-65
2023/04/21 06:50:43;;;;;;;18.00;16.30;;;;;;;7.91;nan;96627.97;4934294;28;20530;-64
2023/04/21 06:53:11;;;;;;;16.80;14.90;;;;;;;8.03;nan;96623.88;4902067;28;20276;-65
2023/04/21 06:55:39;;;;;;;18.50;16.60;;;;;;;8.16;nan;96625.88;4943448;28;20423;-64
2023/04/21 06:58:06;;;;;;;19.00;15.77;;;;;;;8.48;nan;96623.03;4954814;28;20621;-65
2023/04/21 07:00:34;;;;;;;16.63;15.00;;;;;;;8.83;nan;96623.25;4935327;28;20229;-65
2023/04/21 07:03:01;;;;;;;17.47;14.70;;;;;;;9.08;nan;96618.44;4950508;28;20226;-64
2023/04/21 07:05:30;;;;;;;17.93;16.23;;;;;;;9.05;nan;96620.66;4934454;28;20450;-65
2023/04/21 07:07:59;;;;;;;16.50;14.90;;;;;;;9.26;nan;96622.47;4905123;28;20992;-65
2023/04/21 07:10:27;;;;;;;16.30;14.43;;;;;;;9.34;nan;96618.88;4938210;28;20807;-64
2023/04/21 07:12:55;;;;;;;15.87;14.27;;;;;;;9.16;nan;96620.13;4956014;28;20221;-63
2023/04/21 07:15:22;;;;;;;14.90;13.40;;;;;;;9.18;nan;96618.13;4934185;28;20698;-65
2023/04/21 07:17:50;;;;;;;17.03;14.23;;;;;;;9.22;nan;96614.09;4952771;28;20562;-65
2023/04/21 07:20:18;;;;;;;16.13;14.70;;;;;;;9.28;nan;96625.75;4937484;28;20268;-64
2023/04/21 07:22:47;;;;;;;15.80;14.20;;;;;;;9.35;nan;96631.09;4906448;28;20231;-65
2023/04/21 07:25:15;;;;;;;15.90;14.23;;;;;;;9.52;nan;96623.72;4938347;28;20279;-64
2023/04/21 07:27:42;;;;;;;15.30;13.73;;;;;;;9.59;nan;96623.75;4954604;28;20448;-67
2023/04/21 07:30:11;;;;;;;14.20;12.90;;;;;;;9.73;nan;96635.25;4948528;28;20776;-65
2023/04/21 07:32:39;;;;;;;15.43;13.57;;;;;;;9.71;nan;96627.53;4942852;28;20209;-65
2023/04/21 07:35:07;;;;;;;13.17;11.90;;;;;;;9.95;nan;96609.56;4958032;28;20717;-63
2023/04/21 07:37:35;;;;;;;14.13;12.73;;;;;;;9.99;nan;96621.41;4891600;28;21017;-65
2023/04/21 07:40:04;;;;;;;13.57;12.27;;;;;;;10.21;nan;96619.47;4954201;28;20709;-64
2023/04/21 07:42:32;;;;;;;13.57;12.27;;;;;;;10.12;nan;96618.00;4937855;28;20701;-67
2023/04/21 07:45:01;;;;;;;14.47;13.03;;;;;;;10.34;nan;96629.34;4956624;28;20284;-66
2023/04/21 07:47:28;;;;;;;14.23;12.93;;;;;;;10.46;nan;96623.53;4934775;28;20378;-65
2023/04/21 07:49:56;;;;;;;13.47;12.27;;;;;;;10.52;nan;96622.75;4955321;28;20799;-61
2023/04/21 07:52:24;;;;;;;13.20;11.40;;;;;;;10.56;nan;96626.63;4933963;28;20358;-65
2023/04/21 07:54:51;;;;;;;13.37;12.07;;;;;;;10.85;nan;96620.19;4910952;28;20387;-67
2023/04/21 07:57:20;;;;;;;12.27;11.17;;;;;;;10.82;nan;96627.75;4938571;28;20221;-66
2023/04/21 07:59:48;;;;;;;12.10;10.90;;;;;;;10.93;nan;96619.22;4955629;28;20798;-65
2023/04/21 08:02:16;;;;;;;12.67;11.47;;;;;;;11.13;nan;96613.13;4931054;28;20753;-66
2023/04/21 08:04:43;;;;;;;11.83;10.83;;;;;;;11.12;nan;96620.25;4953096;28;20276;-67
2023/04/21 08:07:12;;;;;;;11.40;10.33;;;;;;;11.40;nan;96619.28;4934918;28;20799;-66
2023/04/21 08:09:40;;;;;;;11.37;10.20;;;;;;;11.58;nan;96618.69;4909963;28;20879;-66
2023/04/21 08:12:08;;;;;;;10.57;9.67;;;;;;;11.47;nan;96613.97;4934654;28;20205;-64
2023/04/21 08:14:37;;;;;;;10.60;9.67;;;;;;;11.55;nan;96624.41;4952628;28;20206;-63
2023/04/21 08:17:05;;;;;;;11.20;9.33;;;;;;;11.71;nan;96617.03;4955287;28;20217;-64
2023/04/21 08:19:32;;;;;;;10.10;9.17;;;;;;;11.67;nan;96621.13;4934824;28;20245;-67
2023/04/21 08:22:00;;;;;;;10.00;9.00;;;;;;;11.82;nan;96615.59;4958492;28;20220;-66
2023/04/21 08:24:28;;;;;;;9.63;8.80;;;;;;;11.67;nan;96613.16;4891725;28;21487;-66
2023/04/21 08:26:56;;;;;;;9.47;8.57;;;;;;;11.92;nan;96617.81;4940112;28;20210;-64
2023/04/21 08:29:24;;;;;;;9.33;8.47;;;;;;;12.00;nan;96614.97;4956874;28;20229;-66
2023/04/21 08:31:53;;;;;;;9.40;8.57;;;;;;;12.27;nan;96612.28;4955771;28;20209;-65
2023/04/21 08:34:20;;;;;;;9.67;8.77;;;;;;;12.12;nan;96616.00;4935166;28;20213;-66
2023/04/21 08:36:50;;;;;;;9.07;8.17;;;;;;;12.44;nan;96609.97;4956341;28;20220;-65
2023/04/21 08:39:17;;;;;;;9.57;8.70;;;;;;;12.50;nan;96616.28;4934990;28;20307;-65
2023/04/21 08:41:46;;;;;;;9.63;8.20;;;;;;;12.45;nan;96616.91;4889729;28;20218;-66
2023/04/21 08:44:14;;;;;;;8.87;8.07;;;;;;;12.55;nan;96624.44;4959918;28;20724;-66
2023/04/21 08:46:43;;;;;;;8.67;7.83;;;;;;;12.56;nan;96616.28;4957609;28;20245;-65
2023/04/21 08:49:14;;;;;;;8.43;7.50;;;;;;;12.80;nan;96615.75;4936833;28;20232;-65
2023/04/21 08:51:42;;;;;;;8.23;7.63;;;;;;;13.11;nan;96609.66;4956653;28;20279;-67
2023/04/21 08:54:10;;;;;;;7.43;6.73;;;;;;;13.24;nan;96614.06;4950161;28;20676;-66
2023/04/21 08:56:39;;;;;;;8.30;7.50;;;;;;;13.47;nan;96615.38;4895692;28;20983;-66
2023/04/21 08:59:06;;;;;;;8.57;7.87;;;;;;;13.36;nan;96616.88;4938575;28;20299;-65
2023/04/21 09:02:05;;;;;;;8.90;7.97;;;;;;;13.56;nan;96618.56;4955178;28;20240;-65
2023/04/21 09:04:35;;;;;;;8.83;8.03;;;;;;;13.66;nan;96613.59;4935085;28;20233;-66
2023/04/21 09:07:03;;;;;;;9.03;8.17;;;;;;;13.73;nan;96608.19;4956149;28;20248;-65
2023/04/21 09:09:30;;;;;;;8.37;7.67;;;;;;;13.94;nan;96608.84;4956021;28;20347;-65
2023/04/21 09:11:58;;;;;;;9.33;8.43;;;;;;;14.10;nan;96612.78;4894208;28;20773;-65
2023/04/21 09:14:31;;;;;;;8.57;7.87;;;;;;;14.09;nan;96611.97;4941220;28;20983;-65
2023/04/21 09:17:00;;;;;;;8.13;7.47;;;;;;;14.31;nan;96614.22;4956546;28;20239;-67
2023/04/21 09:19:28;;;;;;;7.97;7.27;;;;;;;14.57;nan;96609.59;4956931;28;20795;-65
2023/04/21 09:21:57;;;;;;;8.07;7.37;;;;;;;14.85;nan;96617.09;4939742;28;20236;-65
2023/04/21 09:24:24;;;;;;;7.60;7.03;;;;;;;14.91;nan;96607.34;4953412;28;20479;-66
2023/04/21 09:26:53;;;;;;;8.07;7.47;;;;;;;14.52;nan;96610.28;4890093;28;20225;-66
2023/04/21 09:29:22;;;;;;;8.30;7.60;;;;;;;14.50;nan;96611.53;4940085;28;20229;-65
2023/04/21 09:31:50;;;;;;;7.20;6.60;;;;;;;14.88;nan;96610.47;4954531;28;20594;-66
2023/04/21 09:34:19;;;;;;;8.33;7.17;;;;;;;15.02;nan;96605.78;4956837;28;20256;-66
2023/04/21 09:36:47;;;;;;;7.93;7.33;;;;;;;15.17;nan;96598.19;4938043;28;20206;-66
2023/04/21 09:39:16;;;;;;;7.47;6.90;;;;;;;14.54;nan;96608.19;4955163;28;20304;-65
2023/04/21 09:41:46;;;;;;;6.63;6.13;;;;;;;14.45;nan;96606.88;4941591;28;20209;-67
2023/04/21 09:44:16;;;;;;;7.57;6.87;;;;;;;14.50;nan;96604.34;4888527;28;20234;-65
2023/04/21 09:46:47;;;;;;;7.20;6.57;;;;;;;14.64;nan;96602.34;4951937;28;20774;-65
2023/04/21 09:49:16;;;;;;;7.00;6.47;;;;;;;14.46;nan;96603.97;4955440;28;20234;-66
2023/04/21 09:51:45;;;;;;;6.83;6.27;;;;;;;14.91;nan;96610.03;4933617;28;20218;-65
2023/04/21 09:54:18;;;;;;;7.07;6.40;;;;;;;15.27;nan;96602.16;4951848;28;20589;-64
2023/04/21 09:57:00;;;;;;;6.83;6.23;;;;;;;15.47;nan;96599.16;4937220;28;20748;-65
2023/04/21 09:59:30;;;;;;;7.60;6.87;;;;;;;15.57;nan;96596.75;4903360;28;20635;-65
2023/04/21 10:01:59;;;;;;;7.07;6.47;;;;;;;15.41;nan;96589.41;4953317;28;20220;-65
2023/04/21 10:04:28;;;;;;;7.07;6.57;;;;;;;15.38;nan;96595.22;4952170;28;20687;-66
2023/04/21 10:06:56;;;;;;;7.13;6.53;;;;;;;15.31;nan;96595.31;4931929;28;20222;-66
2023/04/21 10:09:29;;;;;;;5.93;5.43;;;;;;;15.60;nan;96592.81;4951155;28;20260;-65
2023/04/21 10:11:56;;;;;;;6.80;6.30;;;;;;;15.89;nan;96579.59;4938037;28;20214;-65
2023/04/21 10:14:25;;;;;;;6.40;5.90;;;;;;;16.19;nan;96589.34;4903497;28;20280;-65
2023/04/21 10:16:56;;;;;;;6.27;5.83;;;;;;;15.90;nan;96586.56;4951308;28;20214;-64
2023/04/21 10:19:25;;;;;;;6.37;5.73;;;;;;;15.57;nan;96587.94;4954122;28;20241;-66
2023/04/21 10:21:55;;;;;;;6.37;5.90;;;;;;;15.71;nan;96583.16;4955657;28;20694;-65
2023/04/21 10:24:23;;;;;;;6.00;5.60;;;;;;;15.51;nan;96584.31;4931025;28;20630;-64
2023/04/21 10:26:52;;;;;;;6.37;5.77;;;;;;;15.71;nan;96577.81;4951439;28;20209;-65
2023/04/21 10:29:29;;;;;;;5.80;5.20;;;;;;;15.73;nan;96578.44;4891558;28;20677;-66
2023/04/21 10:32:07;;;;;;;6.30;5.80;;;;;;;15.62;nan;96577.38;4952564;28;20902;-66
2023/04/21 10:34:38;;;;;;;5.80;5.20;;;;;;;15.83;nan;96577.81;4954406;28;20459;-66
2023/04/21 10:37:15;;;;;;;7.40;6.37;;;;;;;15.69;nan;96575.41;4952210;28;20213;-66
2023/04/21 10:39:44;;;;;;;5.97;5.30;;;;;;;15.74;nan;96569.38;4944911;28;20237;-68
2023/04/21 10:42:24;;;;;;;6.70;6.10;;;;;;;15.66;nan;96572.38;4956408;28;20217;-66
2023/04/21 10:44:54;;;;;;;7.10;6.50;;;;;;;15.57;nan;96563.91;4936304;28;20972;-66
2023/04/21 10:47:25;;;;;;;6.30;5.90;;;;;;;15.46;nan;96576.19;4899735;28;20653;-66
2023/04/21 10:49:52;;;;;;;9.10;6.60;;;;;;;15.49;nan;96575.72;4954080;28;21165;-64
2023/04/21 10:52:20;;;;;;;7.47;6.63;;;;;;;15.45;nan;96574.56;4951343;28;21004;-65
2023/04/21 10:55:07;;;;;;;6.83;6.27;;;;;;;15.96;nan;96574.97;4938151;28;20240;-68
2023/04/21 10:57:36;;;;;;;6.50;6.00;;;;;;;16.09;nan;96570.41;4955990;28;20209;-64
2023/04/21 11:00:06;;;;;;;8.90;5.63;;;;;;;15.88;nan;96570.78;4934882;28;20666;-67
2023/04/21 11:02:34;;;;;;;6.80;6.20;;;;;;;16.14;nan;96578.53;4907904;28;20782;-66
2023/04/21 11:05:06;;;;;;;6.00;5.60;;;;;;;16.19;nan;96574.13;4953402;28;20284;-65
2023/04/21 11:07:33;;;;;;;5.70;5.30;;;;;;;16.58;nan;96576.22;4952169;28;20555;-66
2023/04/21 11:10:02;;;;;;;6.10;5.60;;;;;;;16.62;nan;96572.03;4935953;28;20225;-67
2023/04/21 11:12:31;;;;;;;5.43;5.07;;;;;;;17.00;nan;96569.81;4954171;28;20480;-67
2023/04/21 11:15:03;;;;;;;5.50;5.10;;;;;;;17.20;nan;96561.34;4937317;28;20209;-68
2023/04/21 11:17:31;;;;;;;5.90;5.03;;;;;;;17.26;nan;96556.88;4903452;28;20813;-67
2023/04/21 11:19:59;;;;;;;4.60;4.30;;;;;;;16.98;nan;96566.56;4952814;28;20233;-66
2023/04/21 11:22:27;;;;;;;4.77;4.47;;;;;;;16.84;nan;96563.34;4949197;28;20272;-66
2023/04/21 11:24:55;;;;;;;4.70;4.37;;;;;;;16.93;nan;96558.44;4935439;28;20213;-66
2023/04/21 11:27:26;;;;;;;7.60;5.13;;;;;;;16.51;nan;96572.88;4952082;28;20210;-66
2023/04/21 11:29:54;;;;;;;7.67;5.40;;;;;;;16.40;nan;96560.38;4955236;28;21055;-65
2023/04/21 11:32:23;;;;;;;5.57;5.27;;;;;;;16.41;nan;96565.47;4889110;28;20226;-66
2023/04/21 11:34:51;;;;;;;5.93;5.53;;;;;;;16.46;nan;96565.56;4952486;28;20490;-67
2023/04/21 11:37:23;;;;;;;5.30;4.87;;;;;;;16.88;nan;96556.47;4947413;28;20205;-65
2023/04/21 11:39:57;;;;;;;5.10;4.70;;;;;;;17.35;nan;96557.28;4951746;28;20233;-66
2023/04/21 11:42:24;;;;;;;5.50;4.80;;;;;;;17.53;nan;96556.22;4931559;28;20283;-67
2023/04/21 11:44:54;;;;;;;5.20;4.80;;;;;;;17.59;nan;96557.13;4957327;28;20206;-68
2023/04/21 11:47:24;;;;;;;5.57;5.03;;;;;;;17.96;nan;96555.78;4932256;28;20217;-67
2023/04/21 11:49:55;;;;;;;5.63;5.20;;;;;;;17.74;nan;96541.28;4911391;28;20425;-69